Svartfoss — V2PR3 — position and weather

sailwx.info

Track history (hours):
 
Tides and Currents Weather Stations Pressure Air Temp Water Temp Dewpoint Dewpoint Depression Visibility Wind Speed Wind Dir Waves Ship Positions

Svartfoss

Last reported at 2015-Mar-04 15:14 UTC. Time now 2015-Mar-04 18:50 UTC.
Position N 64°43' E 010°56'.

Length 80 m; draft 5.6 m.

Type: Cargo ship. MMSI: 304882000.

Date/timePositionNaut miles runAvg speedWind from/ knotsBaromVisibWave heightAir tempDewpointWater temp
2015-Mar-04 15:14N 64°43' E 010°56'913.5
2015-Mar-04 14:33N 64°50' E 011°11'1413.8
2015-Mar-04 13:34N 64°59' E 011°35'1413.7
2015-Mar-04 12:32N 65°11' E 011°51'5212.7
2015-Mar-04 08:30N 66°00' E 012°31'9 7.6
2015-Mar-04 07:15N 66°07' E 012°46'1013.9
2015-Mar-04 06:32N 66°17' E 012°55'4013.1
2015-Mar-04 03:28N 66°55' E 013°28'1313.3
2015-Mar-04 02:31N 67°03' E 013°52'1313.7
2015-Mar-04 01:33N 67°14' E 014°10'1313.0
2015-Mar-04 00:34N 67°26' E 014°26'1413.3
2015-Mar-03 23:32N 67°38' E 014°14'153 4.8
2015-Mar-02 15:29N 69°34' E 018°47'5 5.3
2015-Mar-02 14:33N 69°38' E 018°57'0 0.0
2015-Mar-02 13:33N 69°38' E 018°57'0 0.0
2015-Mar-02 12:33N 69°38' E 018°57'0 0.0
2015-Mar-02 11:33N 69°38' E 018°57'0 0.0
2015-Mar-02 10:33N 69°38' E 018°57'0 0.0
2015-Mar-02 09:33N 69°38' E 018°57'0 0.0
2015-Mar-02 08:33N 69°38' E 018°57'0 0.0
2015-Mar-02 07:33N 69°38' E 018°57'0 0.0
2015-Mar-02 06:33N 69°38' E 018°57'2 1.9
2015-Mar-02 05:33N 69°39' E 018°58'0 0.0
2015-Mar-02 04:33N 69°39' E 018°58'0 0.0
2015-Mar-02 03:33N 69°39' E 018°58'0 0.0
2015-Mar-02 02:33N 69°39' E 018°58'0 0.0
2015-Mar-02 01:33N 69°39' E 018°58'8612.2
2015-Mar-01 18:34N 70°28' E 022°26'1414.3
2015-Mar-01 17:34N 70°33' E 023°05'1313.3
2015-Mar-01 16:33N 70°40' E 023°40'0 0.1
2015-Mar-01 15:33N 70°40' E 023°40'2 2.0
2015-Mar-01 14:34N 70°38' E 023°40'0 0.0
2015-Mar-01 13:34N 70°38' E 023°40'0 0.0
2015-Mar-01 12:34N 70°38' E 023°40'0 0.0
2015-Mar-01 11:33N 70°38' E 023°40'0 0.0
2015-Mar-01 10:33N 70°38' E 023°40'0 0.0
2015-Mar-01 09:33N 70°38' E 023°40'0 0.0
2015-Mar-01 08:33N 70°38' E 023°40'4 4.5
2015-Mar-01 07:33N 70°41' E 023°30'221 5.4
2015-Feb-27 14:23N 69°04' E 033°08'5 6.4
2015-Feb-27 13:33N 68°59' E 033°02'2 2.5
2015-Feb-27 12:33N 68°56' E 033°02'0 0.0
2015-Feb-27 11:33N 68°56' E 033°02'0 0.0
2015-Feb-27 10:33N 68°56' E 033°02'2 1.6
2015-Feb-27 09:33N 68°58' E 033°02'0 0.4
2015-Feb-27 08:31N 68°58' E 033°03'0 0.0
2015-Feb-27 07:31N 68°58' E 033°03'0 0.0
2015-Feb-27 06:31N 68°58' E 033°03'0 0.0
2015-Feb-27 05:31N 68°58' E 033°03'0 0.0
2015-Feb-27 04:31N 68°58' E 033°03'0 0.0
2015-Feb-27 03:31N 68°58' E 033°03'0 0.0
2015-Feb-27 02:31N 68°58' E 033°03'0 0.0
2015-Feb-27 01:31N 68°58' E 033°03'0 0.0
2015-Feb-27 00:31N 68°58' E 033°03'0 0.0
2015-Feb-26 23:31N 68°58' E 033°03'0 0.0
2015-Feb-26 22:31N 68°58' E 033°03'0 0.0
2015-Feb-26 21:31N 68°58' E 033°03'0 0.2
2015-Feb-26 20:34N 68°58' E 033°03'2 1.7
2015-Feb-26 19:32N 68°56' E 033°02'0 0.0
2015-Feb-26 18:32N 68°56' E 033°02'0 0.0
2015-Feb-26 17:32N 68°56' E 033°02'0 0.0
2015-Feb-26 16:32N 68°56' E 033°02'0 0.0
2015-Feb-26 15:32N 68°56' E 033°02'0 0.0
2015-Feb-26 14:32N 68°56' E 033°02'0 0.0
2015-Feb-26 13:32N 68°56' E 033°02'0 0.0
2015-Feb-26 12:32N 68°56' E 033°02'0 0.0
2015-Feb-26 11:32N 68°56' E 033°02'0 0.0
2015-Feb-26 10:32N 68°56' E 033°02'0 0.0
2015-Feb-26 09:32N 68°56' E 033°02'0 0.0
2015-Feb-26 08:33N 68°56' E 033°02'0 0.0
2015-Feb-26 07:33N 68°56' E 033°02'0 0.0
2015-Feb-26 06:33N 68°56' E 033°02'0 0.2
2015-Feb-26 05:33N 68°57' E 033°01'6 5.7
2015-Feb-26 04:33N 69°02' E 033°03'219 7.3
2015-Feb-24 22:27N 70°45' E 023°39'5 5.9
2015-Feb-24 21:34N 70°40' E 023°40'2 1.9
2015-Feb-24 20:34N 70°38' E 023°40'7 7.1
2015-Feb-24 19:33N 70°37' E 023°19'2114.9
2015-Feb-24 18:10N 70°27' E 022°24'8114.3
2015-Feb-24 12:29N 69°43' E 019°04'3 3.2
2015-Feb-24 11:33N 69°41' E 018°59'1 1.0
2015-Feb-24 10:33N 69°40' E 018°60'2 2.3
2015-Feb-24 09:33N 69°38' E 018°57'0 0.0
2015-Feb-24 08:34N 69°38' E 018°57'0 0.0
2015-Feb-24 07:33N 69°38' E 018°57'0 0.2
2015-Feb-24 06:33N 69°38' E 018°56'2 1.9
2015-Feb-24 05:33N 69°39' E 018°58'0 0.0
2015-Feb-24 04:33N 69°39' E 018°58'0 0.0
2015-Feb-24 03:33N 69°39' E 018°58'0 0.0
2015-Feb-24 02:33N 69°39' E 018°58'0 0.0
2015-Feb-24 01:33N 69°39' E 018°58'0 0.0
2015-Feb-24 00:33N 69°39' E 018°58'0 0.0
2015-Feb-23 23:33N 69°39' E 018°58'0 0.0
2015-Feb-23 22:33N 69°39' E 018°58'0 0.0
2015-Feb-23 21:34N 69°39' E 018°58'4 3.8
2015-Feb-23 20:33N 69°36' E 018°53'14310.0
2015-Feb-23 06:12N 67°52' E 014°21'913.8
2015-Feb-23 05:33N 67°44' E 014°16'1514.5
2015-Feb-23 04:33N 67°29' E 014°22'1313.3
2015-Feb-23 03:33N 67°17' E 014°14'5913.7
2015-Feb-22 23:15N 66°26' E 012°59'7211.9
2015-Feb-22 17:11N 65°18' E 011°59'914.9
2015-Feb-22 16:33N 65°09' E 011°50'1414.4
2015-Feb-22 15:34N 64°57' E 011°31'  
Track history (hours):
 
Tides and Currents Weather Stations Pressure Air Temp Water Temp Dewpoint Dewpoint Depression Visibility Wind Speed Wind Dir Waves Ship Positions

Svartfoss

Last reported at 2015-Mar-04 15:14 UTC. Time now 2015-Mar-04 18:50 UTC.
Position N 64°43' E 010°56'.

Length 80 m; draft 5.6 m.

Type: Cargo ship. MMSI: 304882000.

Date/timePositionNaut miles runAvg speedWind from/ knotsBaromVisibWave heightAir tempDewpointWater temp
2015-Mar-04 15:14N 64°43' E 010°56'913.5
2015-Mar-04 14:33N 64°50' E 011°11'1413.8
2015-Mar-04 13:34N 64°59' E 011°35'1413.7
2015-Mar-04 12:32N 65°11' E 011°51'5212.7
2015-Mar-04 08:30N 66°00' E 012°31'9 7.6
2015-Mar-04 07:15N 66°07' E 012°46'1013.9
2015-Mar-04 06:32N 66°17' E 012°55'4013.1
2015-Mar-04 03:28N 66°55' E 013°28'1313.3
2015-Mar-04 02:31N 67°03' E 013°52'1313.7
2015-Mar-04 01:33N 67°14' E 014°10'1313.0
2015-Mar-04 00:34N 67°26' E 014°26'1413.3
2015-Mar-03 23:32N 67°38' E 014°14'153 4.8
2015-Mar-02 15:29N 69°34' E 018°47'5 5.3
2015-Mar-02 14:33N 69°38' E 018°57'0 0.0
2015-Mar-02 13:33N 69°38' E 018°57'0 0.0
2015-Mar-02 12:33N 69°38' E 018°57'0 0.0
2015-Mar-02 11:33N 69°38' E 018°57'0 0.0
2015-Mar-02 10:33N 69°38' E 018°57'0 0.0
2015-Mar-02 09:33N 69°38' E 018°57'0 0.0
2015-Mar-02 08:33N 69°38' E 018°57'0 0.0
2015-Mar-02 07:33N 69°38' E 018°57'0 0.0
2015-Mar-02 06:33N 69°38' E 018°57'2 1.9
2015-Mar-02 05:33N 69°39' E 018°58'0 0.0
2015-Mar-02 04:33N 69°39' E 018°58'0 0.0
2015-Mar-02 03:33N 69°39' E 018°58'0 0.0
2015-Mar-02 02:33N 69°39' E 018°58'0 0.0
2015-Mar-02 01:33N 69°39' E 018°58'8612.2
2015-Mar-01 18:34N 70°28' E 022°26'1414.3
2015-Mar-01 17:34N 70°33' E 023°05'1313.3
2015-Mar-01 16:33N 70°40' E 023°40'0 0.1
2015-Mar-01 15:33N 70°40' E 023°40'2 2.0
2015-Mar-01 14:34N 70°38' E 023°40'0 0.0
2015-Mar-01 13:34N 70°38' E 023°40'0 0.0
2015-Mar-01 12:34N 70°38' E 023°40'0 0.0
2015-Mar-01 11:33N 70°38' E 023°40'0 0.0
2015-Mar-01 10:33N 70°38' E 023°40'0 0.0
2015-Mar-01 09:33N 70°38' E 023°40'0 0.0
2015-Mar-01 08:33N 70°38' E 023°40'4 4.5
2015-Mar-01 07:33N 70°41' E 023°30'221 5.4
2015-Feb-27 14:23N 69°04' E 033°08'5 6.4
2015-Feb-27 13:33N 68°59' E 033°02'2 2.5
2015-Feb-27 12:33N 68°56' E 033°02'0 0.0
2015-Feb-27 11:33N 68°56' E 033°02'0 0.0
2015-Feb-27 10:33N 68°56' E 033°02'2 1.6
2015-Feb-27 09:33N 68°58' E 033°02'0 0.4
2015-Feb-27 08:31N 68°58' E 033°03'0 0.0
2015-Feb-27 07:31N 68°58' E 033°03'0 0.0
2015-Feb-27 06:31N 68°58' E 033°03'0 0.0
2015-Feb-27 05:31N 68°58' E 033°03'0 0.0
2015-Feb-27 04:31N 68°58' E 033°03'0 0.0
2015-Feb-27 03:31N 68°58' E 033°03'0 0.0
2015-Feb-27 02:31N 68°58' E 033°03'0 0.0
2015-Feb-27 01:31N 68°58' E 033°03'0 0.0
2015-Feb-27 00:31N 68°58' E 033°03'0 0.0
2015-Feb-26 23:31N 68°58' E 033°03'0 0.0
2015-Feb-26 22:31N 68°58' E 033°03'0 0.0
2015-Feb-26 21:31N 68°58' E 033°03'0 0.2
2015-Feb-26 20:34N 68°58' E 033°03'2 1.7
2015-Feb-26 19:32N 68°56' E 033°02'0 0.0
2015-Feb-26 18:32N 68°56' E 033°02'0 0.0
2015-Feb-26 17:32N 68°56' E 033°02'0 0.0
2015-Feb-26 16:32N 68°56' E 033°02'0 0.0
2015-Feb-26 15:32N 68°56' E 033°02'0 0.0
2015-Feb-26 14:32N 68°56' E 033°02'0 0.0
2015-Feb-26 13:32N 68°56' E 033°02'0 0.0
2015-Feb-26 12:32N 68°56' E 033°02'0 0.0
2015-Feb-26 11:32N 68°56' E 033°02'0 0.0
2015-Feb-26 10:32N 68°56' E 033°02'0 0.0
2015-Feb-26 09:32N 68°56' E 033°02'0 0.0
2015-Feb-26 08:33N 68°56' E 033°02'0 0.0
2015-Feb-26 07:33N 68°56' E 033°02'0 0.0
2015-Feb-26 06:33N 68°56' E 033°02'0 0.2
2015-Feb-26 05:33N 68°57' E 033°01'6 5.7
2015-Feb-26 04:33N 69°02' E 033°03'219 7.3
2015-Feb-24 22:27N 70°45' E 023°39'5 5.9
2015-Feb-24 21:34N 70°40' E 023°40'2 1.9
2015-Feb-24 20:34N 70°38' E 023°40'7 7.1
2015-Feb-24 19:33N 70°37' E 023°19'2114.9
2015-Feb-24 18:10N 70°27' E 022°24'8114.3
2015-Feb-24 12:29N 69°43' E 019°04'3 3.2
2015-Feb-24 11:33N 69°41' E 018°59'1 1.0
2015-Feb-24 10:33N 69°40' E 018°60'2 2.3
2015-Feb-24 09:33N 69°38' E 018°57'0 0.0
2015-Feb-24 08:34N 69°38' E 018°57'0 0.0
2015-Feb-24 07:33N 69°38' E 018°57'0 0.2
2015-Feb-24 06:33N 69°38' E 018°56'2 1.9
2015-Feb-24 05:33N 69°39' E 018°58'0 0.0
2015-Feb-24 04:33N 69°39' E 018°58'0 0.0
2015-Feb-24 03:33N 69°39' E 018°58'0 0.0
2015-Feb-24 02:33N 69°39' E 018°58'0 0.0
2015-Feb-24 01:33N 69°39' E 018°58'0 0.0
2015-Feb-24 00:33N 69°39' E 018°58'0 0.0
2015-Feb-23 23:33N 69°39' E 018°58'0 0.0
2015-Feb-23 22:33N 69°39' E 018°58'0 0.0
2015-Feb-23 21:34N 69°39' E 018°58'4 3.8
2015-Feb-23 20:33N 69°36' E 018°53'14310.0
2015-Feb-23 06:12N 67°52' E 014°21'913.8
2015-Feb-23 05:33N 67°44' E 014°16'1514.5
2015-Feb-23 04:33N 67°29' E 014°22'1313.3
2015-Feb-23 03:33N 67°17' E 014°14'5913.7
2015-Feb-22 23:15N 66°26' E 012°59'7211.9
2015-Feb-22 17:11N 65°18' E 011°59'914.9
2015-Feb-22 16:33N 65°09' E 011°50'1414.4
2015-Feb-22 15:34N 64°57' E 011°31'  

Dump ship's entire track history